Time;durP1;ratioP1;P1;durP2;ratioP2;P2;SDS_P1;SDS_P2;PMS_P1;PMS_P2;Temp;Humidity;BMP_temperature;BMP_pressure;BME280_temperature;BME280_humidity;BME280_pressure;Samples;Min_cycle;Max_cycle;Signal;HPM_P1;HPM_P2
2022/02/21 00:00:16;;;;;;;5.97;1.30;;;11.30;99.90;;;;;;5023496;28;20487;-87
2022/02/21 00:02:49;;;;;;;3.43;1.07;;;11.30;99.90;;;;;;5026855;28;20828;-86
2022/02/21 00:05:17;;;;;;;4.37;1.30;;;11.40;99.90;;;;;;5025106;28;20482;-88
2022/02/21 00:07:45;;;;;;;3.90;0.80;;;11.30;99.90;;;;;;5023082;28;20450;-88
2022/02/21 00:10:13;;;;;;;4.10;1.30;;;11.30;99.90;;;;;;5023732;28;20541;-88
2022/02/21 00:12:41;;;;;;;4.10;1.10;;;11.40;99.90;;;;;;5023019;28;20620;-87
2022/02/21 00:15:09;;;;;;;3.90;1.27;;;11.40;99.90;;;;;;5023574;28;20549;-87
2022/02/21 00:17:36;;;;;;;8.30;1.50;;;11.40;99.90;;;;;;5029487;28;20505;-87
2022/02/21 00:20:06;;;;;;;4.63;1.20;;;11.40;99.90;;;;;;5027924;28;20446;-86
2022/02/21 00:22:33;;;;;;;3.03;1.10;;;11.40;99.90;;;;;;5022505;28;20498;-87
2022/02/21 00:25:00;;;;;;;5.60;1.27;;;11.50;99.90;;;;;;5022864;28;20562;-85
2022/02/21 00:27:26;;;;;;;4.00;1.30;;;11.60;99.90;;;;;;5034041;28;20488;-85
2022/02/21 00:29:53;;;;;;;4.70;1.13;;;11.40;99.90;;;;;;5037830;28;20450;-85
2022/02/21 00:32:20;;;;;;;4.30;1.10;;;11.50;99.90;;;;;;5032197;28;20493;-87
2022/02/21 00:34:47;;;;;;;4.30;1.30;;;11.40;99.90;;;;;;5038492;28;20501;-86
2022/02/21 00:37:15;;;;;;;4.17;0.90;;;11.60;99.90;;;;;;5033113;28;20429;-86
2022/02/21 00:39:42;;;;;;;2.87;0.90;;;11.50;99.90;;;;;;5025083;28;20536;-87
2022/02/21 00:42:09;;;;;;;4.30;1.20;;;11.50;99.90;;;;;;5029397;28;20525;-88
2022/02/21 00:44:36;;;;;;;5.33;2.00;;;11.50;99.90;;;;;;5025176;28;20580;-85
2022/02/21 00:47:04;;;;;;;4.63;1.23;;;11.50;99.90;;;;;;5021365;28;20549;-85
2022/02/21 00:49:31;;;;;;;6.10;1.40;;;11.50;99.90;;;;;;5021490;28;20475;-87
2022/02/21 00:51:58;;;;;;;5.47;1.20;;;11.60;99.90;;;;;;5028717;28;20519;-86
2022/02/21 00:54:27;;;;;;;6.10;1.77;;;11.60;99.90;;;;;;5032714;28;20486;-88
2022/02/21 00:56:54;;;;;;;4.87;1.50;;;11.60;99.90;;;;;;5027517;28;20425;-85
2022/02/21 00:59:21;;;;;;;4.37;1.23;;;11.40;99.90;;;;;;5024859;28;20441;-83
2022/02/21 01:01:48;;;;;;;5.13;1.10;;;11.40;99.90;;;;;;5025063;28;20421;-86
2022/02/21 01:04:15;;;;;;;4.90;1.27;;;11.40;99.90;;;;;;5023512;28;20542;-87
2022/02/21 01:06:42;;;;;;;6.07;1.53;;;11.40;99.90;;;;;;5021931;28;20930;-87
2022/02/21 01:09:09;;;;;;;4.93;1.63;;;11.30;99.90;;;;;;5021158;28;20505;-86
2022/02/21 01:11:37;;;;;;;5.37;1.13;;;11.30;99.90;;;;;;5020033;28;20456;-87
2022/02/21 01:14:04;;;;;;;3.80;1.30;;;11.20;99.90;;;;;;5019439;28;20573;-86
2022/02/21 01:16:31;;;;;;;4.00;1.37;;;11.20;99.90;;;;;;5019633;28;20541;-86
2022/02/21 01:18:58;;;;;;;3.30;1.10;;;11.20;99.90;;;;;;5027632;28;20459;-87
2022/02/21 01:21:25;;;;;;;5.03;1.37;;;11.20;99.90;;;;;;5025809;28;20454;-87
2022/02/21 01:23:52;;;;;;;4.10;1.17;;;11.30;99.90;;;;;;5024538;28;20473;-88
2022/02/21 01:26:19;;;;;;;3.33;1.00;;;11.20;99.90;;;;;;5022632;28;20477;-88
2022/02/21 01:28:47;;;;;;;6.30;1.50;;;11.20;99.90;;;;;;5021860;28;20469;-88
2022/02/21 01:31:14;;;;;;;3.80;1.17;;;11.10;99.90;;;;;;5021036;28;20512;-88
2022/02/21 01:33:41;;;;;;;4.50;1.27;;;11.00;99.90;;;;;;5019603;28;20489;-86
2022/02/21 01:36:08;;;;;;;4.00;1.10;;;11.00;99.90;;;;;;5020905;28;20482;-86
2022/02/21 01:38:35;;;;;;;3.57;1.07;;;10.90;99.90;;;;;;5020528;28;20447;-86
2022/02/21 01:41:02;;;;;;;3.97;0.80;;;10.90;99.90;;;;;;5019760;28;20469;-87
2022/02/21 01:43:29;;;;;;;3.77;1.20;;;11.00;99.90;;;;;;5020435;28;20827;-86
2022/02/21 01:45:57;;;;;;;3.40;1.07;;;11.00;99.90;;;;;;5021272;28;20561;-85
2022/02/21 01:48:24;;;;;;;8.57;1.00;;;11.00;99.90;;;;;;5020743;28;20516;-88
2022/02/21 01:50:51;;;;;;;4.60;1.30;;;11.00;99.90;;;;;;5022443;28;20485;-87
2022/02/21 01:53:19;;;;;;;4.47;1.20;;;11.00;99.90;;;;;;5022793;28;20461;-86
2022/02/21 01:55:46;;;;;;;5.70;1.43;;;11.00;99.90;;;;;;5020467;28;20471;-87
2022/02/21 01:58:13;;;;;;;9.60;3.13;;;11.00;99.90;;;;;;5020285;28;20485;-87
2022/02/21 02:00:40;;;;;;;4.87;1.40;;;11.00;99.90;;;;;;5020002;28;20533;-87
2022/02/21 02:03:08;;;;;;;3.80;1.27;;;11.10;99.90;;;;;;5020185;28;20455;-86
2022/02/21 02:05:35;;;;;;;3.37;1.47;;;11.10;99.90;;;;;;5029372;28;20559;-87
2022/02/21 02:08:03;;;;;;;3.13;1.00;;;11.10;99.90;;;;;;5024223;28;20546;-87
2022/02/21 02:10:31;;;;;;;3.10;0.90;;;11.10;99.90;;;;;;5022081;28;20469;-87
2022/02/21 02:12:57;;;;;;;3.60;1.20;;;11.00;99.90;;;;;;5023654;28;20449;-86
2022/02/21 02:15:25;;;;;;;5.30;1.50;;;11.00;99.90;;;;;;5019853;28;20547;-87
2022/02/21 02:17:52;;;;;;;4.10;1.07;;;11.10;99.90;;;;;;5019333;28;20447;-87
2022/02/21 02:20:21;;;;;;;3.57;0.90;;;11.10;99.90;;;;;;5020571;28;20462;-88
2022/02/21 02:22:49;;;;;;;3.17;0.90;;;11.00;99.90;;;;;;5020690;28;20435;-87
2022/02/21 02:25:16;;;;;;;2.63;0.90;;;11.00;99.90;;;;;;5021289;28;20471;-88
2022/02/21 02:27:43;;;;;;;4.00;0.83;;;11.00;99.90;;;;;;5021264;28;20457;-88
2022/02/21 02:30:10;;;;;;;3.10;0.97;;;11.00;99.90;;;;;;5024978;28;20513;-88
2022/02/21 02:32:37;;;;;;;4.27;0.93;;;11.00;99.90;;;;;;5026294;28;20508;-88
2022/02/21 02:35:05;;;;;;;3.37;1.10;;;11.00;99.90;;;;;;5023833;28;20597;-87
2022/02/21 02:37:32;;;;;;;2.83;1.03;;;11.00;99.90;;;;;;5021895;28;20454;-89
2022/02/21 02:40:00;;;;;;;4.00;1.00;;;11.00;99.90;;;;;;5021270;28;20489;-86
2022/02/21 02:42:27;;;;;;;3.10;0.90;;;11.00;99.90;;;;;;5021146;28;20470;-88
2022/02/21 02:44:54;;;;;;;6.17;0.80;;;11.00;99.90;;;;;;5019979;28;20489;-87
2022/02/21 02:47:21;;;;;;;2.60;0.70;;;11.00;99.90;;;;;;5020951;28;20485;-87
2022/02/21 02:49:48;;;;;;;3.13;0.93;;;10.90;99.90;;;;;;5020530;28;20447;-87
2022/02/21 02:52:15;;;;;;;3.90;0.80;;;10.80;99.90;;;;;;5025926;28;20457;-87
2022/02/21 02:54:42;;;;;;;3.77;0.90;;;10.80;99.90;;;;;;5031651;28;20486;-87
2022/02/21 02:57:10;;;;;;;4.37;1.00;;;10.80;99.90;;;;;;5028689;28;20477;-86
2022/02/21 02:59:37;;;;;;;2.80;0.90;;;10.80;99.90;;;;;;5025391;28;20446;-86
2022/02/21 03:02:04;;;;;;;2.80;1.00;;;10.80;99.90;;;;;;5024901;28;20455;-87
2022/02/21 03:04:31;;;;;;;3.00;1.00;;;10.80;99.90;;;;;;5023726;28;20528;-87
2022/02/21 03:07:00;;;;;;;2.60;0.80;;;10.80;99.90;;;;;;5030532;28;20522;-85
2022/02/21 03:09:27;;;;;;;5.60;1.03;;;10.90;99.90;;;;;;5029619;28;20450;-87
2022/02/21 03:11:54;;;;;;;3.47;0.90;;;10.80;99.90;;;;;;5028060;28;20469;-88
2022/02/21 03:14:23;;;;;;;2.40;0.70;;;10.90;99.90;;;;;;5028096;28;20546;-86
2022/02/21 03:16:50;;;;;;;2.40;0.60;;;10.90;99.90;;;;;;5031121;28;20478;-85
2022/02/21 03:19:19;;;;;;;3.77;0.80;;;11.00;99.90;;;;;;5036797;28;20413;-85
2022/02/21 03:21:46;;;;;;;3.37;1.00;;;11.00;99.90;;;;;;5034609;28;20450;-86
2022/02/21 03:24:13;;;;;;;3.40;1.00;;;11.00;99.90;;;;;;5028462;28;20502;-86
2022/02/21 03:26:40;;;;;;;5.40;0.83;;;11.00;99.90;;;;;;5033996;28;20509;-86
2022/02/21 03:29:07;;;;;;;3.10;0.77;;;11.00;99.90;;;;;;5028650;28;20525;-87
2022/02/21 03:31:35;;;;;;;3.03;0.90;;;11.00;99.90;;;;;;5027603;28;20451;-87
2022/02/21 03:34:02;;;;;;;2.60;0.70;;;11.20;99.90;;;;;;5022143;28;20471;-86
2022/02/21 03:36:29;;;;;;;4.00;0.80;;;11.10;99.90;;;;;;5021951;28;20545;-87
2022/02/21 03:38:55;;;;;;;4.60;1.10;;;11.20;99.90;;;;;;5020883;28;20486;-87
2022/02/21 03:41:22;;;;;;;2.40;0.60;;;11.20;99.90;;;;;;5021336;28;20474;-86
2022/02/21 03:43:49;;;;;;;4.13;0.83;;;11.10;99.90;;;;;;5026447;28;20456;-85
2022/02/21 03:46:16;;;;;;;2.50;0.60;;;10.80;99.90;;;;;;5039195;23;20502;-84
2022/02/21 03:48:44;;;;;;;3.15;0.70;;;9.80;99.90;;;;;;5020079;28;20450;-84
2022/02/21 03:51:11;;;;;;;4.25;0.52;;;8.40;99.90;;;;;;5021551;28;20208;-84
2022/02/21 03:53:38;;;;;;;2.10;0.50;;;7.50;99.90;;;;;;5022294;28;20242;-84
2022/02/21 03:56:05;;;;;;;3.60;0.47;;;6.90;99.90;;;;;;5021423;28;20323;-84
2022/02/21 03:58:32;;;;;;;3.42;0.80;;;6.70;99.90;;;;;;5021337;28;20211;-84
2022/02/21 04:00:59;;;;;;;3.20;0.63;;;6.60;99.90;;;;;;5021713;28;20252;-84
2022/02/21 04:03:26;;;;;;;2.50;0.50;;;6.60;99.90;;;;;;5022018;28;20285;-85
2022/02/21 04:05:54;;;;;;;6.63;0.80;;;6.10;99.90;;;;;;5022135;28;20336;-84
2022/02/21 04:08:21;;;;;;;2.20;0.50;;;6.40;99.90;;;;;;5027342;28;20210;-84
2022/02/21 04:10:48;;;;;;;8.32;0.95;;;6.30;99.90;;;;;;5027770;28;20245;-85
2022/02/21 04:13:14;;;;;;;3.85;0.80;;;6.30;99.90;;;;;;5025038;28;20211;-85
2022/02/21 04:15:41;;;;;;;3.15;0.60;;;5.90;99.90;;;;;;5026238;28;20302;-85
2022/02/21 04:18:08;;;;;;;2.67;0.50;;;6.30;99.90;;;;;;5025779;28;20214;-85
2022/02/21 04:20:35;;;;;;;4.45;0.88;;;6.20;99.90;;;;;;5025009;28;20237;-85
2022/02/21 04:23:03;;;;;;;5.30;0.77;;;6.00;99.90;;;;;;5029435;28;20253;-84
2022/02/21 04:25:30;;;;;;;2.33;0.55;;;6.00;99.90;;;;;;5029773;28;20257;-84
2022/02/21 04:27:57;;;;;;;3.25;0.82;;;6.10;99.90;;;;;;5031835;28;20305;-85
2022/02/21 04:30:25;;;;;;;3.17;0.90;;;6.30;99.90;;;;;;5026914;28;20242;-85
2022/02/21 04:32:53;;;;;;;5.25;0.90;;;6.10;99.90;;;;;;5025670;28;20219;-85
2022/02/21 04:35:22;;;;;;;4.75;1.23;;;6.10;99.90;;;;;;5025306;28;20243;-85
2022/02/21 04:37:49;;;;;;;6.10;0.80;;;6.20;99.90;;;;;;5026055;28;20692;-85
2022/02/21 04:40:19;;;;;;;3.13;1.15;;;6.00;99.90;;;;;;5030646;28;20651;-84
2022/02/21 04:42:48;;;;;;;3.50;1.20;;;6.00;99.90;;;;;;5022368;28;20237;-85
2022/02/21 04:45:15;;;;;;;4.78;1.10;;;6.00;99.90;;;;;;5022071;28;20233;-85
2022/02/21 04:47:42;;;;;;;3.60;1.30;;;5.80;99.90;;;;;;5022450;28;20230;-85
2022/02/21 04:50:10;;;;;;;4.65;1.63;;;5.90;99.90;;;;;;5024153;28;20244;-85
2022/02/21 04:52:38;;;;;;;4.57;1.27;;;6.00;99.90;;;;;;5024680;28;20247;-85
2022/02/21 04:55:06;;;;;;;3.67;0.93;;;5.80;99.90;;;;;;5024446;28;20235;-85
2022/02/21 04:57:35;;;;;;;3.85;1.00;;;6.20;99.90;;;;;;5025936;28;20203;-85
2022/02/21 05:00:02;;;;;;;6.05;1.52;;;6.00;99.90;;;;;;5025039;28;20286;-85
2022/02/21 05:02:29;;;;;;;4.55;1.25;;;6.20;99.90;;;;;;5024802;28;20214;-85
2022/02/21 05:04:55;;;;;;;5.07;1.10;;;6.10;99.90;;;;;;5025225;28;20206;-85
2022/02/21 05:07:22;;;;;;;5.22;1.40;;;6.30;99.90;;;;;;5024778;28;20305;-85
2022/02/21 05:09:49;;;;;;;5.88;1.80;;;6.20;99.90;;;;;;5024562;28;20268;-85
2022/02/21 05:12:16;;;;;;;4.68;1.20;;;6.00;99.90;;;;;;5026595;28;20214;-85
2022/02/21 05:14:44;;;;;;;6.38;1.55;;;6.10;99.90;;;;;;5025406;28;20316;-84
2022/02/21 05:17:11;;;;;;;6.03;1.38;;;6.50;99.90;;;;;;5025957;28;20210;-84
2022/02/21 05:19:38;;;;;;;5.30;1.45;;;6.60;99.90;;;;;;5025897;28;20241;-84
2022/02/21 05:22:05;;;;;;;7.90;1.55;;;6.60;99.90;;;;;;5025862;28;20238;-84
2022/02/21 05:24:32;;;;;;;5.80;1.25;;;6.60;99.90;;;;;;5029723;28;20279;-83
2022/02/21 05:26:59;;;;;;;4.60;1.80;;;6.50;99.90;;;;;;5036509;28;20294;-84
2022/02/21 05:29:26;;;;;;;6.25;1.67;;;6.70;99.90;;;;;;5030852;28;20225;-84
2022/02/21 05:31:54;;;;;;;10.30;2.03;;;6.70;99.90;;;;;;5026327;28;20242;-84
2022/02/21 05:34:22;;;;;;;8.32;1.58;;;6.80;99.90;;;;;;5033760;28;20301;-85
2022/02/21 05:36:48;;;;;;;5.10;1.65;;;6.80;99.90;;;;;;5038256;28;20234;-85
2022/02/21 05:39:15;;;;;;;13.23;2.05;;;6.60;99.90;;;;;;5033039;28;20198;-85
2022/02/21 05:41:42;;;;;;;6.30;1.88;;;7.00;99.90;;;;;;5034484;28;20253;-85
2022/02/21 05:44:09;;;;;;;5.07;1.60;;;7.00;99.90;;;;;;5030982;28;20230;-85
2022/02/21 05:46:37;;;;;;;5.85;1.63;;;7.10;99.90;;;;;;5037993;28;20301;-86
2022/02/21 05:49:06;;;;;;;6.30;1.95;;;7.10;99.90;;;;;;5035779;28;20245;-85
2022/02/21 05:51:33;;;;;;;6.63;1.63;;;7.10;99.90;;;;;;5029322;28;20294;-85
2022/02/21 05:54:00;;;;;;;8.90;2.20;;;7.20;99.90;;;;;;5027974;28;20490;-85
2022/02/21 05:56:26;;;;;;;16.15;2.92;;;7.00;99.90;;;;;;5026837;28;20312;-85
2022/02/21 05:58:53;;;;;;;8.00;2.03;;;7.10;99.90;;;;;;5026416;28;20210;-85
2022/02/21 06:01:20;;;;;;;5.70;1.70;;;7.20;99.90;;;;;;5024193;28;20207;-84
2022/02/21 06:03:47;;;;;;;8.32;2.30;;;7.20;99.90;;;;;;5020101;28;20211;-85
2022/02/21 06:06:15;;;;;;;5.05;1.67;;;7.40;99.90;;;;;;5021731;28;20314;-85
2022/02/21 06:08:42;;;;;;;6.07;1.95;;;7.30;99.90;;;;;;5025409;28;20226;-84
2022/02/21 06:11:09;;;;;;;12.70;2.75;;;7.30;99.90;;;;;;5028286;28;20203;-86
2022/02/21 06:13:36;;;;;;;8.32;2.28;;;7.30;99.90;;;;;;5024215;28;20245;-84
2022/02/21 06:16:04;;;;;;;4.82;1.73;;;7.40;99.90;;;;;;5024930;28;20238;-84
2022/02/21 06:18:32;;;;;;;7.30;1.80;;;7.30;99.90;;;;;;5022534;28;20211;-84
2022/02/21 06:20:59;;;;;;;12.23;2.30;;;6.90;99.90;;;;;;5022561;28;20226;-85
2022/02/21 06:23:27;;;;;;;10.20;2.20;;;7.00;99.90;;;;;;5022601;28;20593;-85
2022/02/21 06:25:54;;;;;;;9.57;2.08;;;7.30;99.90;;;;;;5021631;28;20767;-85
2022/02/21 06:28:24;;;;;;;9.00;2.53;;;7.30;99.90;;;;;;5023060;28;20261;-85
2022/02/21 06:30:51;;;;;;;10.23;2.60;;;7.30;99.90;;;;;;5022000;28;20242;-86
2022/02/21 06:33:18;;;;;;;7.75;1.88;;;7.40;99.90;;;;;;5021651;28;20237;-85
2022/02/21 06:35:45;;;;;;;8.18;2.10;;;7.40;99.90;;;;;;5023628;28;20325;-86
2022/02/21 06:38:12;;;;;;;9.70;2.17;;;7.50;99.90;;;;;;5024327;28;20233;-86
2022/02/21 06:40:40;;;;;;;7.90;2.10;;;7.40;99.90;;;;;;5023934;28;20241;-85
2022/02/21 06:43:07;;;;;;;7.22;1.90;;;7.50;99.90;;;;;;5025079;28;20263;-86
2022/02/21 06:45:35;;;;;;;5.88;2.13;;;7.60;99.90;;;;;;5023381;28;20731;-86
2022/02/21 06:48:02;;;;;;;5.07;1.90;;;7.60;99.90;;;;;;5024315;28;20286;-85
2022/02/21 06:50:29;;;;;;;5.35;1.90;;;7.60;99.90;;;;;;5034564;28;20195;-86
2022/02/21 06:52:56;;;;;;;9.15;2.47;;;7.60;99.90;;;;;;5024536;28;20237;-84
2022/02/21 06:55:23;;;;;;;9.75;1.77;;;7.60;99.90;;;;;;5020983;28;20235;-86
2022/02/21 06:57:53;;;;;;;10.68;2.60;;;7.60;99.90;;;;;;5021077;28;20566;-86
2022/02/21 07:00:20;;;;;;;6.20;2.10;;;7.50;99.90;;;;;;5028727;28;20230;-84
2022/02/21 07:02:47;;;;;;;20.65;2.88;;;7.40;99.90;;;;;;5026868;28;20270;-85
2022/02/21 07:05:14;;;;;;;8.43;1.90;;;7.50;99.90;;;;;;5025681;28;20250;-85
2022/02/21 07:07:42;;;;;;;6.50;1.98;;;7.30;99.90;;;;;;5029138;28;20271;-85
2022/02/21 07:10:10;;;;;;;10.15;2.85;;;7.30;99.90;;;;;;5022632;28;20294;-84
2022/02/21 07:12:37;;;;;;;8.60;1.92;;;7.30;99.90;;;;;;5021484;28;20294;-85
2022/02/21 07:15:06;;;;;;;13.43;2.35;;;7.20;99.90;;;;;;5020834;28;20237;-85
2022/02/21 07:17:38;;;;;;;8.38;1.75;;;7.10;99.90;;;;;;5021008;28;20302;-84
2022/02/21 07:20:06;;;;;;;10.57;2.08;;;7.00;99.90;;;;;;5021636;28;20249;-85
2022/02/21 07:22:33;;;;;;;8.88;2.20;;;6.90;99.90;;;;;;5025760;28;20204;-86
2022/02/21 07:25:00;;;;;;;6.35;2.25;;;7.00;99.90;;;;;;5026028;28;20218;-86
2022/02/21 07:27:27;;;;;;;10.55;3.15;;;6.60;99.90;;;;;;5025238;28;20265;-86
2022/02/21 07:29:54;;;;;;;20.45;3.92;;;7.00;99.90;;;;;;5023882;28;20261;-86
2022/02/21 07:32:23;;;;;;;10.90;2.90;;;7.10;99.90;;;;;;5022371;28;20207;-85
2022/02/21 07:34:49;;;;;;;11.80;2.78;;;7.00;99.90;;;;;;5021062;28;20204;-85
2022/02/21 07:37:17;;;;;;;8.60;2.65;;;7.00;99.90;;;;;;5021268;28;20272;-85
2022/02/21 07:39:44;;;;;;;6.75;1.80;;;7.00;99.90;;;;;;5021527;28;20207;-85
2022/02/21 07:42:11;;;;;;;9.20;2.17;;;7.10;99.90;;;;;;5023655;28;20222;-87
2022/02/21 07:44:38;;;;;;;8.80;2.42;;;7.20;99.90;;;;;;5029974;28;20241;-86
2022/02/21 07:47:06;;;;;;;13.02;2.75;;;7.20;99.90;;;;;;5032496;28;20245;-84
2022/02/21 07:49:34;;;;;;;7.43;3.00;;;7.30;99.90;;;;;;5028693;28;20222;-85
2022/02/21 07:52:01;;;;;;;10.38;2.45;;;7.20;99.90;;;;;;5028707;28;20278;-86
2022/02/21 07:54:28;;;;;;;6.55;1.40;;;7.30;99.90;;;;;;5025277;28;20234;-88
2022/02/21 07:56:55;;;;;;;8.70;2.63;;;7.40;99.90;;;;;;5024993;28;20249;-86
2022/02/21 07:59:27;;;;;;;8.73;2.40;;;7.40;99.90;;;;;;5034326;28;20237;-86
2022/02/21 08:01:54;;;;;;;13.60;2.90;;;7.40;99.90;;;;;;5026604;28;20234;-85
2022/02/21 08:04:29;;;;;;;10.32;2.30;;;7.20;99.90;;;;;;5032265;28;20238;-85
2022/02/21 08:06:57;;;;;;;15.10;2.65;;;7.50;99.90;;;;;;5034003;28;20235;-85
2022/02/21 08:09:24;;;;;;;9.70;2.35;;;7.60;99.90;;;;;;5038760;28;20239;-86
2022/02/21 08:11:51;;;;;;;10.23;2.40;;;7.60;99.90;;;;;;5028865;28;20211;-85
2022/02/21 08:14:18;;;;;;;11.88;2.80;;;7.70;99.90;;;;;;5026147;28;20210;-86
2022/02/21 08:16:45;;;;;;;7.38;2.00;;;7.60;99.90;;;;;;5025901;28;20258;-85
2022/02/21 08:19:11;;;;;;;8.95;2.03;;;7.70;99.90;;;;;;5025640;28;20217;-85
2022/02/21 08:21:39;;;;;;;13.15;3.17;;;7.60;99.90;;;;;;5025488;28;20249;-85
2022/02/21 08:24:08;;;;;;;7.05;2.00;;;7.60;99.90;;;;;;5024290;28;20210;-86
2022/02/21 08:26:35;;;;;;;6.05;2.53;;;7.70;99.90;;;;;;5027953;28;20253;-86
2022/02/21 08:29:02;;;;;;;8.32;2.22;;;7.80;99.90;;;;;;5026539;28;20299;-85
2022/02/21 08:31:29;;;;;;;14.33;2.07;;;8.00;99.90;;;;;;5024130;28;20347;-85
2022/02/21 08:33:56;;;;;;;8.73;2.17;;;8.10;99.90;;;;;;5023469;28;20481;-85
2022/02/21 08:36:23;;;;;;;6.75;2.22;;;8.20;99.90;;;;;;5024049;28;20291;-84
2022/02/21 08:38:50;;;;;;;6.80;2.70;;;8.30;99.90;;;;;;5024706;28;20223;-85
2022/02/21 08:41:18;;;;;;;8.53;1.90;;;8.30;99.90;;;;;;5029884;28;20309;-85
2022/02/21 08:43:45;;;;;;;13.13;3.10;;;8.40;99.90;;;;;;5039272;28;20442;-85
2022/02/21 08:46:12;;;;;;;7.90;2.40;;;8.40;99.90;;;;;;5038072;28;20506;-85
2022/02/21 08:48:39;;;;;;;11.23;3.03;;;8.50;99.90;;;;;;5031232;28;20518;-84
2022/02/21 08:51:06;;;;;;;8.63;2.72;;;8.50;99.90;;;;;;5027231;28;20226;-85
2022/02/21 08:53:35;;;;;;;7.30;2.30;;;8.50;99.90;;;;;;5037538;28;20239;-84
2022/02/21 08:56:02;;;;;;;13.18;3.45;;;8.50;99.90;;;;;;5037588;28;20577;-85
2022/02/21 08:58:30;;;;;;;8.95;2.08;;;8.50;99.90;;;;;;5034930;28;20211;-85
2022/02/21 09:00:58;;;;;;;12.60;2.60;;;8.70;99.90;;;;;;5031103;28;20254;-86
2022/02/21 09:03:26;;;;;;;10.33;2.73;;;8.70;99.90;;;;;;5030123;28;20446;-85
2022/02/21 09:05:53;;;;;;;13.10;2.67;;;8.70;99.90;;;;;;5033490;28;20466;-85
2022/02/21 09:08:20;;;;;;;9.67;2.70;;;8.80;99.90;;;;;;5033257;28;20454;-85
2022/02/21 09:10:48;;;;;;;7.82;2.67;;;8.90;99.90;;;;;;5024717;28;20454;-86
2022/02/21 09:13:15;;;;;;;9.73;3.60;;;9.00;99.90;;;;;;5025194;28;20247;-86
2022/02/21 09:15:43;;;;;;;10.97;2.60;;;9.00;99.80;;;;;;5023899;28;20526;-85
2022/02/21 09:18:11;;;;;;;11.13;3.08;;;9.00;99.80;;;;;;5022357;28;20458;-84
2022/02/21 09:20:38;;;;;;;7.70;2.45;;;9.00;99.90;;;;;;5037543;28;20234;-85
2022/02/21 09:23:05;;;;;;;5.47;1.97;;;9.00;99.90;;;;;;5024260;28;20208;-83
2022/02/21 09:25:32;;;;;;;10.02;2.60;;;8.90;99.40;;;;;;5021707;28;20478;-84
2022/02/21 09:27:59;;;;;;;8.32;2.45;;;8.90;99.90;;;;;;5024199;28;20211;-83
2022/02/21 09:30:26;;;;;;;9.63;2.50;;;9.00;99.70;;;;;;5021176;28;20204;-83
2022/02/21 09:32:55;;;;;;;10.50;2.80;;;9.10;99.40;;;;;;5021769;28;20497;-85
2022/02/21 09:38:05;;;;;;;9.13;2.70;;;9.30;99.60;;;;;;5022707;28;20565;-84
2022/02/21 09:40:33;;;;;;;8.60;2.43;;;9.30;99.40;;;;;;5023116;28;20496;-85
2022/02/21 09:43:01;;;;;;;7.60;2.43;;;9.30;99.50;;;;;;5020539;28;20529;-85
2022/02/21 09:45:29;;;;;;;10.10;2.13;;;9.30;99.40;;;;;;5024520;28;21057;-84
2022/02/21 09:47:58;;;;;;;11.15;3.10;;;9.20;99.10;;;;;;5022767;28;20530;-84
2022/02/21 09:50:27;;;;;;;7.43;2.07;;;9.00;99.10;;;;;;5020465;28;20298;-85
2022/02/21 09:53:00;;;;;;;12.73;4.40;;;9.00;99.50;;;;;;5021586;28;20457;-85
2022/02/21 09:55:27;;;;;;;3.60;1.13;;;9.00;99.30;;;;;;5023377;28;20485;-85
2022/02/21 09:57:54;;;;;;;11.02;2.78;;;9.00;98.60;;;;;;5021962;28;20523;-86
2022/02/21 10:00:21;;;;;;;8.70;2.30;;;9.00;98.00;;;;;;5023470;28;20218;-86
2022/02/21 10:02:51;;;;;;;8.47;2.40;;;9.10;98.70;;;;;;5022533;28;20454;-85
2022/02/21 10:05:21;;;;;;;6.03;2.67;;;9.30;98.30;;;;;;5032954;28;20466;-86
2022/02/21 10:07:49;;;;;;;9.40;2.63;;;9.50;97.30;;;;;;5027985;28;20446;-85
2022/02/21 10:10:19;;;;;;;9.30;2.10;;;9.60;96.90;;;;;;5022031;28;20458;-85
2022/02/21 10:12:50;;;;;;;10.77;2.10;;;9.60;96.60;;;;;;5021263;28;20481;-85
2022/02/21 10:15:19;;;;;;;10.63;1.90;;;9.60;96.80;;;;;;5027967;28;20497;-85
2022/02/21 10:17:49;;;;;;;12.03;2.43;;;9.40;96.70;;;;;;5024750;28;20569;-85
2022/02/21 10:20:20;;;;;;;14.45;2.30;;;9.40;97.00;;;;;;5020964;28;20497;-84
2022/02/21 10:23:02;;;;;;;11.03;2.80;;;9.40;97.10;;;;;;5022049;28;20191;-87
2022/02/21 10:25:29;;;;;;;6.33;2.17;;;9.30;97.10;;;;;;5022068;28;20501;-84
2022/02/21 10:27:59;;;;;;;8.37;2.00;;;9.20;97.40;;;;;;5022694;28;20477;-84
2022/02/21 10:30:27;;;;;;;7.10;2.10;;;9.30;97.20;;;;;;5023357;28;20445;-84
2022/02/21 10:32:54;;;;;;;9.98;2.88;;;9.30;96.70;;;;;;5021820;28;20451;-85
2022/02/21 10:35:23;;;;;;;7.20;1.77;;;9.20;97.10;;;;;;5024277;28;20291;-85
2022/02/21 10:37:55;;;;;;;6.37;2.87;;;9.40;96.70;;;;;;5021585;28;20521;-85
2022/02/21 10:40:29;;;;;;;11.63;2.90;;;9.40;96.00;;;;;;5021322;28;20489;-86
2022/02/21 10:43:03;;;;;;;7.30;1.90;;;9.40;95.40;;;;;;5025662;28;20444;-84
2022/02/21 10:45:31;;;;;;;7.37;2.10;;;9.30;95.40;;;;;;5025586;28;20486;-85
2022/02/21 10:48:06;;;;;;;9.70;2.13;;;9.30;95.60;;;;;;5022458;28;20462;-85
2022/02/21 10:50:36;;;;;;;8.17;2.50;;;9.40;95.50;;;;;;5022920;28;20565;-85
2022/02/21 10:53:09;;;;;;;9.82;2.53;;;9.40;95.20;;;;;;5022244;28;20521;-85
2022/02/21 10:55:36;;;;;;;4.10;1.33;;;9.40;94.70;;;;;;5022863;28;20227;-85
2022/02/21 10:58:18;;;;;;;7.43;1.97;;;9.30;94.70;;;;;;5020922;28;20488;-85
2022/02/21 11:00:50;;;;;;;4.90;1.80;;;9.30;93.70;;;;;;5022728;28;20493;-86
2022/02/21 11:03:19;;;;;;;4.70;1.23;;;9.30;94.30;;;;;;5024653;28;20450;-86
2022/02/21 11:05:48;;;;;;;9.60;2.13;;;9.10;93.50;;;;;;5023391;28;20681;-86
2022/02/21 11:08:16;;;;;;;8.37;1.70;;;9.10;93.60;;;;;;5021884;28;20227;-86
2022/02/21 11:10:44;;;;;;;6.90;2.00;;;9.20;94.00;;;;;;5023007;28;20541;-86
2022/02/21 11:13:13;;;;;;;6.10;1.43;;;9.50;93.80;;;;;;5023810;28;20528;-86
2022/02/21 11:15:40;;;;;;;5.77;2.03;;;9.50;93.20;;;;;;5023210;28;20481;-85
2022/02/21 11:18:09;;;;;;;6.47;1.60;;;9.70;92.80;;;;;;5028420;28;20482;-84
2022/02/21 11:20:36;;;;;;;3.53;1.20;;;9.80;93.00;;;;;;5028014;28;20938;-85
2022/02/21 11:23:05;;;;;;;5.73;1.80;;;9.80;92.90;;;;;;5028435;28;20430;-85
2022/02/21 11:25:39;;;;;;;4.53;1.10;;;9.80;93.20;;;;;;5037304;28;20582;-86
2022/02/21 11:28:15;;;;;;;6.53;2.00;;;9.60;93.60;;;;;;5025970;28;20481;-85
2022/02/21 11:30:44;;;;;;;8.43;1.80;;;9.70;94.50;;;;;;5027370;28;20446;-85
2022/02/21 11:33:13;;;;;;;7.90;1.53;;;9.60;95.50;;;;;;5040970;28;20427;-85
2022/02/21 11:36:01;;;;;;;11.77;2.17;;;9.60;96.00;;;;;;5032850;28;20533;-86
2022/02/21 11:38:33;;;;;;;5.73;1.70;;;9.60;96.60;;;;;;5027654;28;20484;-86
2022/02/21 11:41:02;;;;;;;8.00;1.90;;;9.40;97.90;;;;;;5025176;28;20443;-85
2022/02/21 11:43:35;;;;;;;9.30;2.10;;;9.20;99.20;;;;;;5028402;28;20477;-87
2022/02/21 11:46:05;;;;;;;8.93;2.10;;;9.20;99.90;;;;;;5031029;28;20512;-85
2022/02/21 11:49:07;;;;;;;6.40;1.70;;;9.00;99.90;;;;;;5033776;28;20458;-86
2022/02/21 11:51:37;;;;;;;9.20;2.00;;;8.70;99.90;;;;;;4978706;29;20428;-86
2022/02/21 11:54:46;;;;;;;13.88;2.83;;;8.70;99.90;;;;;;4978027;28;20465;-86
2022/02/21 11:57:13;;;;;;;9.67;2.10;;;8.80;99.90;;;;;;5017393;28;20227;-85
2022/02/21 11:59:40;;;;;;;5.33;1.93;;;9.10;99.90;;;;;;5031322;28;20450;-85
2022/02/21 12:02:13;;;;;;;6.20;1.90;;;9.30;99.30;;;;;;5039590;28;20439;-87
2022/02/21 12:04:53;;;;;;;6.60;2.57;;;9.50;98.10;;;;;;5037494;28;20427;-84
2022/02/21 12:07:26;;;;;;;9.20;2.17;;;9.60;97.80;;;;;;5034331;28;20457;-85
2022/02/21 12:10:14;;;;;;;4.90;1.97;;;9.60;97.00;;;;;;5029664;28;20411;-87
2022/02/21 12:12:52;;;;;;;6.33;1.73;;;9.80;96.70;;;;;;5027724;28;20455;-86
2022/02/21 12:15:20;;;;;;;9.40;2.80;;;9.90;95.10;;;;;;5025953;28;20532;-85
2022/02/21 12:17:47;;;;;;;7.77;1.90;;;9.80;94.40;;;;;;5027131;28;20497;-85
2022/02/21 12:20:34;;;;;;;3.13;1.10;;;9.90;93.60;;;;;;5036496;28;20446;-84
2022/02/21 12:23:16;;;;;;;4.37;1.73;;;10.00;91.50;;;;;;5036661;28;20470;-83
2022/02/21 12:26:16;;;;;;;5.03;1.40;;;9.90;91.80;;;;;;5033982;28;20442;-84
2022/02/21 12:28:44;;;;;;;3.43;1.20;;;10.00;90.80;;;;;;5025964;28;20402;-86
2022/02/21 12:31:24;;;;;;;5.93;1.50;;;10.10;90.30;;;;;;5025187;28;20470;-84
2022/02/21 12:33:56;;;;;;;5.10;1.60;;;10.20;89.80;;;;;;5031543;28;20431;-84
2022/02/21 12:36:23;;;;;;;8.10;2.10;;;9.90;90.60;;;;;;5023861;28;20471;-84
2022/02/21 12:38:58;;;;;;;5.13;1.97;;;9.90;90.50;;;;;;5024673;28;20576;-85
2022/02/21 12:41:34;;;;;;;6.37;1.63;;;9.90;90.30;;;;;;5024399;28;20442;-84
2022/02/21 12:44:03;;;;;;;7.80;1.93;;;9.90;90.70;;;;;;5024621;28;20438;-84
2022/02/21 12:46:32;;;;;;;5.47;1.40;;;9.90;90.60;;;;;;5024243;28;20470;-84
2022/02/21 12:49:00;;;;;;;4.30;1.30;;;9.90;90.40;;;;;;5032431;28;20446;-86
2022/02/21 12:51:29;;;;;;;5.10;1.60;;;9.90;90.50;;;;;;5029629;28;20459;-86
2022/02/21 12:54:02;;;;;;;6.83;2.30;;;9.80;90.40;;;;;;5027016;28;20441;-86
2022/02/21 12:56:42;;;;;;;5.93;1.70;;;9.80;90.70;;;;;;5024654;28;20466;-86
2022/02/21 12:59:10;;;;;;;4.57;1.97;;;9.80;90.90;;;;;;5025243;28;20438;-84
2022/02/21 13:01:37;;;;;;;5.80;1.83;;;9.70;91.30;;;;;;5026364;28;20438;-85